createdAt,value
2022-09-25T00:00:47.761Z,0.00
2022-09-25T00:01:41.137Z,0.00
2022-09-25T00:02:39.991Z,0.00
2022-09-25T00:03:41.699Z,0.00
2022-09-25T00:04:40.075Z,0.00
2022-09-25T00:05:40.405Z,0.00
2022-09-25T00:06:42.163Z,0.00
2022-09-25T00:07:42.901Z,0.00
2022-09-25T00:08:43.185Z,0.00
2022-09-25T00:09:43.275Z,0.00
2022-09-25T00:10:43.694Z,0.00
2022-09-25T00:11:43.648Z,0.00
2022-09-25T00:12:44.417Z,0.00
2022-09-25T00:13:44.526Z,0.00
2022-09-25T00:14:44.664Z,0.00
2022-09-25T00:15:44.884Z,0.00
2022-09-25T00:16:44.083Z,0.00
2022-09-25T00:17:45.823Z,0.00
2022-09-25T00:18:46.004Z,0.00
2022-09-25T00:19:46.226Z,0.00
2022-09-25T00:20:46.411Z,0.00
2022-09-25T00:21:47.099Z,0.00
2022-09-25T00:22:47.253Z,0.00
2022-09-25T00:23:47.422Z,0.00
2022-09-25T00:24:47.575Z,0.00
2022-09-25T00:25:48.266Z,0.00
2022-09-25T00:26:48.443Z,0.00
2022-09-25T00:27:48.640Z,0.00
2022-09-25T00:28:48.815Z,0.00
2022-09-25T00:29:47.585Z,0.00
2022-09-25T00:30:48.893Z,0.00
2022-09-25T00:31:50.273Z,0.00
2022-09-25T00:32:50.245Z,0.00
2022-09-25T00:33:50.423Z,0.00
2022-09-25T00:34:50.615Z,0.00
2022-09-25T00:35:50.418Z,0.00
2022-09-25T00:36:51.608Z,0.00
2022-09-25T00:37:51.794Z,0.00
2022-09-25T00:38:51.980Z,0.00
2022-09-25T00:39:52.166Z,0.00
2022-09-25T00:40:52.968Z,0.00
2022-09-25T00:41:51.247Z,0.00
2022-09-25T00:42:53.439Z,0.00
2022-09-25T00:43:53.619Z,0.00
2022-09-25T00:44:53.798Z,0.00
2022-09-25T00:45:55.067Z,0.00
2022-09-25T00:46:53.660Z,0.00
2022-09-25T00:47:54.878Z,0.00
2022-09-25T00:48:55.063Z,0.00
2022-09-25T00:49:55.249Z,0.00
2022-09-25T00:50:56.882Z,0.00
2022-09-25T00:51:55.116Z,0.00
2022-09-25T00:52:56.318Z,0.00
2022-09-25T00:53:56.480Z,0.00
2022-09-25T00:54:56.673Z,0.00
2022-09-25T00:55:56.130Z,0.00
2022-09-25T00:56:57.112Z,0.00
2022-09-25T00:57:55.870Z,0.00
2022-09-25T00:58:58.055Z,0.00
2022-09-25T00:59:59.200Z,0.00
2022-09-25T01:00:57.747Z,0.00
2022-09-25T01:01:57.091Z,0.00
2022-09-25T01:02:57.295Z,0.00
2022-09-25T01:03:59.440Z,0.00
2022-09-25T01:04:59.622Z,0.00
2022-09-25T01:05:58.196Z,0.00
2022-09-25T01:06:59.170Z,0.00
2022-09-25T01:07:58.672Z,0.00
2022-09-25T01:08:58.984Z,0.00
2022-09-25T01:10:01.165Z,0.00
2022-09-25T01:11:01.527Z,0.00
2022-09-25T01:11:59.900Z,0.00
2022-09-25T01:13:00.209Z,0.00
2022-09-25T01:14:02.402Z,0.00
2022-09-25T01:15:00.787Z,0.00
2022-09-25T01:16:02.074Z,0.00
2022-09-25T01:17:01.837Z,0.00
2022-09-25T01:18:01.791Z,0.00
2022-09-25T01:19:02.097Z,0.00
2022-09-25T01:20:04.283Z,0.00
2022-09-25T01:21:03.701Z,0.00
2022-09-25T01:22:02.953Z,0.00
2022-09-25T01:23:03.274Z,0.00
2022-09-25T01:24:05.514Z,0.00
2022-09-25T01:25:05.640Z,0.00
2022-09-25T01:26:04.226Z,0.00
2022-09-25T01:27:04.406Z,0.00
2022-09-25T01:28:04.714Z,0.00
2022-09-25T01:29:05.025Z,0.00
2022-09-25T01:30:07.215Z,0.00
2022-09-25T01:31:06.688Z,0.00
2022-09-25T01:32:05.873Z,0.00
2022-09-25T01:33:06.184Z,0.00
2022-09-25T01:34:06.608Z,0.00
2022-09-25T01:35:08.673Z,0.00
2022-09-25T01:36:07.909Z,0.00
2022-09-25T01:37:07.404Z,0.00
2022-09-25T01:38:09.594Z,0.00
2022-09-25T01:39:07.977Z,0.00
2022-09-25T01:40:10.229Z,0.00
2022-09-25T01:41:09.474Z,0.00
2022-09-25T01:42:08.852Z,0.00
2022-09-25T01:43:11.035Z,0.00
2022-09-25T01:44:09.487Z,0.00
2022-09-25T01:45:11.609Z,0.00
2022-09-25T01:46:11.053Z,0.00
2022-09-25T01:47:10.293Z,0.00
2022-09-25T01:48:12.495Z,0.00
2022-09-25T01:49:12.684Z,0.00
2022-09-25T01:50:12.892Z,0.00
2022-09-25T01:51:14.032Z,0.00
2022-09-25T01:52:11.805Z,0.00
2022-09-25T01:53:14.002Z,0.00
2022-09-25T01:54:14.188Z,0.00
2022-09-25T01:55:14.377Z,0.00
2022-09-25T01:56:13.926Z,0.00
2022-09-25T01:57:13.296Z,0.00
2022-09-25T01:58:13.605Z,0.00
2022-09-25T01:59:13.917Z,0.00
2022-09-25T02:00:16.106Z,0.00
2022-09-25T02:01:16.963Z,0.00
2022-09-25T02:02:14.798Z,0.00
2022-09-25T02:03:16.916Z,0.00
2022-09-25T02:04:15.295Z,0.00
2022-09-25T02:05:17.490Z,0.00
2022-09-25T02:06:17.830Z,0.00
2022-09-25T02:07:16.229Z,0.00
2022-09-25T02:08:18.441Z,0.00
2022-09-25T02:09:18.616Z,0.00
2022-09-25T02:10:18.798Z,0.00
2022-09-25T02:11:18.447Z,0.00
2022-09-25T02:12:19.678Z,0.00
2022-09-25T02:13:19.882Z,0.00
2022-09-25T02:14:20.060Z,0.00
2022-09-25T02:15:20.248Z,0.00
2022-09-25T02:16:21.461Z,0.00
2022-09-25T02:17:21.119Z,0.00
2022-09-25T02:18:21.274Z,0.00
2022-09-25T02:19:21.472Z,0.00
2022-09-25T02:20:21.658Z,0.00
2022-09-25T02:21:23.832Z,0.00
2022-09-25T02:22:20.721Z,0.00
2022-09-25T02:23:21.031Z,0.00
2022-09-25T02:24:21.337Z,0.00
2022-09-25T02:25:21.652Z,0.00
2022-09-25T02:26:25.323Z,0.00
2022-09-25T02:27:22.244Z,0.00
2022-09-25T02:28:22.569Z,0.00
2022-09-25T02:29:22.879Z,0.00
2022-09-25T02:30:23.251Z,0.00
2022-09-25T02:31:26.354Z,0.00
2022-09-25T02:32:23.763Z,0.00
2022-09-25T02:33:25.950Z,0.00
2022-09-25T02:34:24.342Z,0.00
2022-09-25T02:35:24.967Z,0.00
2022-09-25T02:36:26.896Z,0.00
2022-09-25T02:37:25.165Z,0.00
2022-09-25T02:38:27.349Z,0.00
2022-09-25T02:39:25.738Z,0.00
2022-09-25T02:40:27.926Z,0.00
2022-09-25T02:41:29.096Z,0.00
2022-09-25T02:42:26.632Z,0.00
2022-09-25T02:43:26.917Z,0.00
2022-09-25T02:44:29.119Z,0.00
2022-09-25T02:45:29.283Z,0.00
2022-09-25T02:46:30.487Z,0.00
2022-09-25T02:47:28.086Z,0.00
2022-09-25T02:48:28.403Z,0.00
2022-09-25T02:49:30.596Z,0.00
2022-09-25T02:50:30.777Z,0.00
2022-09-25T02:51:31.947Z,0.00
2022-09-25T02:52:29.607Z,0.00
2022-09-25T02:53:29.927Z,0.00
2022-09-25T02:54:32.087Z,0.00
2022-09-25T02:55:32.274Z,0.00
2022-09-25T02:56:31.715Z,0.00
2022-09-25T02:57:31.074Z,0.00
2022-09-25T02:58:32.258Z,0.00
2022-09-25T02:59:31.627Z,0.00
2022-09-25T03:00:33.809Z,0.00
2022-09-25T03:01:35.067Z,0.00
2022-09-25T03:02:32.469Z,0.00
2022-09-25T03:03:32.781Z,0.00
2022-09-25T03:04:33.080Z,0.00
2022-09-25T03:05:33.390Z,0.00
2022-09-25T03:06:35.622Z,0.00
2022-09-25T03:07:34.020Z,0.00
2022-09-25T03:08:34.314Z,0.00
2022-09-25T03:09:36.499Z,0.00
2022-09-25T03:10:34.887Z,0.00
2022-09-25T03:11:36.226Z,0.00
2022-09-25T03:12:37.455Z,0.00
2022-09-25T03:13:35.733Z,0.00
2022-09-25T03:14:37.905Z,0.00
2022-09-25T03:15:36.304Z,0.00
2022-09-25T03:16:39.479Z,0.00
2022-09-25T03:17:36.882Z,0.00
2022-09-25T03:18:37.186Z,0.00
2022-09-25T03:19:39.375Z,0.00
2022-09-25T03:20:37.766Z,0.00
2022-09-25T03:21:40.942Z,0.00
2022-09-25T03:22:40.168Z,0.00
2022-09-25T03:23:38.678Z,0.00
2022-09-25T03:24:38.978Z,0.00
2022-09-25T03:25:39.301Z,0.00
2022-09-25T03:26:41.470Z,0.00
2022-09-25T03:27:41.660Z,0.00
2022-09-25T03:28:40.171Z,0.00
2022-09-25T03:29:40.481Z,0.00
2022-09-25T03:30:40.845Z,0.00
2022-09-25T03:31:44.463Z,0.00
2022-09-25T03:32:43.146Z,0.00
2022-09-25T03:33:41.661Z,0.00
2022-09-25T03:34:41.977Z,0.00
2022-09-25T03:35:42.295Z,0.00
2022-09-25T03:36:44.471Z,0.00
2022-09-25T03:37:44.660Z,0.00
2022-09-25T03:38:44.831Z,0.00
2022-09-25T03:39:45.032Z,0.00
2022-09-25T03:40:45.804Z,0.00
2022-09-25T03:41:45.916Z,0.00
2022-09-25T03:42:46.104Z,0.00
2022-09-25T03:43:44.855Z,0.00
2022-09-25T03:44:46.775Z,0.00
2022-09-25T03:45:45.201Z,0.00
2022-09-25T03:46:45.485Z,0.00
2022-09-25T03:47:47.672Z,0.00
2022-09-25T03:48:47.845Z,0.00
2022-09-25T03:49:48.006Z,0.00
2022-09-25T03:50:48.183Z,0.00
2022-09-25T03:51:48.876Z,0.00
2022-09-25T03:52:49.043Z,0.00
2022-09-25T03:53:49.205Z,0.00
2022-09-25T03:54:49.365Z,0.00
2022-09-25T03:55:50.056Z,0.00
2022-09-25T03:56:50.253Z,0.00
2022-09-25T03:57:50.434Z,0.00
2022-09-25T03:58:50.584Z,0.00
2022-09-25T03:59:51.279Z,0.00
2022-09-25T04:00:51.464Z,0.00
2022-09-25T04:01:51.709Z,0.00
2022-09-25T04:02:51.915Z,0.00
2022-09-25T04:03:52.537Z,0.00
2022-09-25T04:04:52.716Z,0.00
2022-09-25T04:05:52.906Z,0.00
2022-09-25T04:06:53.088Z,0.00
2022-09-25T04:07:53.798Z,0.00
2022-09-25T04:08:53.980Z,0.00
2022-09-25T04:09:54.164Z,0.00
2022-09-25T04:10:55.260Z,0.00
2022-09-25T04:11:55.006Z,0.00
2022-09-25T04:12:53.371Z,0.00
2022-09-25T04:13:53.689Z,0.00
2022-09-25T04:14:53.999Z,0.00
2022-09-25T04:15:57.197Z,0.00
2022-09-25T04:16:56.405Z,0.00
2022-09-25T04:17:56.584Z,0.00
2022-09-25T04:18:56.771Z,0.00
2022-09-25T04:19:56.959Z,0.00
2022-09-25T04:20:58.631Z,0.00
2022-09-25T04:21:57.870Z,0.00
2022-09-25T04:22:58.055Z,0.00
2022-09-25T04:23:58.262Z,0.00
2022-09-25T04:24:58.423Z,0.00
2022-09-25T04:26:00.088Z,0.00
2022-09-25T04:26:57.485Z,0.00
2022-09-25T04:27:59.684Z,0.00
2022-09-25T04:28:59.830Z,0.00
2022-09-25T04:29:58.341Z,0.00
2022-09-25T04:31:01.546Z,0.00
2022-09-25T04:31:59.010Z,0.00
2022-09-25T04:33:01.132Z,0.00
2022-09-25T04:34:01.313Z,0.00
2022-09-25T04:34:59.818Z,0.00
2022-09-25T04:36:02.984Z,0.00
2022-09-25T04:37:00.401Z,0.00
2022-09-25T04:38:02.572Z,0.00
2022-09-25T04:39:00.941Z,0.00
2022-09-25T04:40:03.128Z,4.00
2022-09-25T04:41:02.434Z,4.00
2022-09-25T04:42:01.787Z,4.00
2022-09-25T04:43:03.959Z,0.00
2022-09-25T04:44:02.349Z,4.00
2022-09-25T04:45:04.635Z,4.00
2022-09-25T04:46:04.049Z,8.00
2022-09-25T04:47:05.178Z,4.00
2022-09-25T04:48:03.565Z,8.00
2022-09-25T04:49:05.748Z,8.00
2022-09-25T04:50:04.151Z,8.00
2022-09-25T04:51:05.435Z,12.00
2022-09-25T04:52:04.690Z,12.00
2022-09-25T04:53:05.015Z,16.00
2022-09-25T04:54:07.227Z,20.00
2022-09-25T04:55:07.809Z,24.00
2022-09-25T04:56:10.861Z,28.00
2022-09-25T04:57:07.101Z,36.00
2022-09-25T04:58:06.362Z,40.00
2022-09-25T04:59:08.532Z,48.00
2022-09-25T05:00:08.703Z,56.00
2022-09-25T05:01:09.743Z,64.00
2022-09-25T05:02:07.568Z,76.00
2022-09-25T05:03:07.843Z,88.00
2022-09-25T05:04:10.146Z,104.00
2022-09-25T05:05:08.271Z,116.00
2022-09-25T05:06:08.661Z,132.00
2022-09-25T05:07:08.852Z,152.00
2022-09-25T05:08:09.191Z,172.00
2022-09-25T05:09:11.363Z,192.00
2022-09-25T05:10:09.774Z,212.00
2022-09-25T05:11:11.084Z,236.00
2022-09-25T05:12:10.458Z,264.00
2022-09-25T05:13:10.809Z,296.00
2022-09-25T05:14:13.041Z,328.00
2022-09-25T05:15:11.390Z,364.00
2022-09-25T05:16:12.742Z,404.00
2022-09-25T05:17:11.969Z,448.00
2022-09-25T05:18:12.296Z,492.00
2022-09-25T05:19:14.476Z,540.00
2022-09-25T05:20:12.885Z,592.00
2022-09-25T05:21:14.215Z,640.00
2022-09-25T05:22:13.505Z,688.00
2022-09-25T05:23:13.823Z,736.00
2022-09-25T05:24:15.997Z,784.00
2022-09-25T05:25:14.385Z,832.00
2022-09-25T05:26:14.810Z,880.00
2022-09-25T05:27:14.997Z,932.00
2022-09-25T05:28:15.345Z,984.00
2022-09-25T05:29:17.526Z,1036.00
2022-09-25T05:30:15.950Z,1088.00
2022-09-25T05:31:19.652Z,1144.00
2022-09-25T05:32:16.580Z,1200.00
2022-09-25T05:33:16.917Z,1256.00
2022-09-25T05:34:17.146Z,1312.00
2022-09-25T05:35:19.322Z,1372.00
2022-09-25T05:36:18.623Z,1432.00
2022-09-25T05:37:17.898Z,1484.00
2022-09-25T05:38:20.098Z,1548.00
2022-09-25T05:39:20.262Z,1604.00
2022-09-25T05:40:20.477Z,1660.00
2022-09-25T05:41:20.681Z,1708.00
2022-09-25T05:42:20.833Z,1748.00
2022-09-25T05:43:21.063Z,1800.00
2022-09-25T05:44:19.742Z,1848.00
2022-09-25T05:45:19.959Z,1888.00
2022-09-25T05:46:22.367Z,1948.00
2022-09-25T05:47:20.640Z,1988.00
2022-09-25T05:48:20.987Z,2048.00
2022-09-25T05:49:21.315Z,2112.00
2022-09-25T05:50:21.665Z,2184.00
2022-09-25T05:51:24.813Z,2228.00
2022-09-25T05:52:24.318Z,2268.00
2022-09-25T05:53:24.179Z,2304.00
2022-09-25T05:54:24.349Z,2332.00
2022-09-25T05:55:25.029Z,2420.00
2022-09-25T05:56:24.343Z,2480.00
2022-09-25T05:57:25.568Z,2520.00
2022-09-25T05:58:25.754Z,2584.00
2022-09-25T05:59:25.949Z,2636.00
2022-09-25T06:00:26.130Z,2668.00
2022-09-25T06:01:25.816Z,2728.00
2022-09-25T06:02:27.072Z,2780.00
2022-09-25T06:03:27.191Z,2828.00
2022-09-25T06:04:27.356Z,2916.00
2022-09-25T06:05:27.522Z,3016.00
2022-09-25T06:06:28.065Z,3052.00
2022-09-25T06:07:28.415Z,3092.00
2022-09-25T06:08:28.605Z,3156.00
2022-09-25T06:09:28.792Z,3244.00
2022-09-25T06:10:29.481Z,3304.00
2022-09-25T06:11:28.747Z,3368.00
2022-09-25T06:12:28.016Z,3392.00
2022-09-25T06:13:30.202Z,3420.00
2022-09-25T06:14:28.508Z,3448.00
2022-09-25T06:15:28.843Z,3484.00
2022-09-25T06:16:32.058Z,3508.00
2022-09-25T06:17:29.497Z,3560.00
2022-09-25T06:18:31.639Z,3624.00
2022-09-25T06:19:30.076Z,3692.00
2022-09-25T06:20:30.297Z,3728.00
2022-09-25T06:21:32.001Z,3772.00
2022-09-25T06:22:30.797Z,3816.00
2022-09-25T06:23:32.986Z,3848.00
2022-09-25T06:24:33.168Z,3888.00
2022-09-25T06:25:33.418Z,3932.00
2022-09-25T06:26:34.551Z,3988.00
2022-09-25T06:27:32.115Z,4052.00
2022-09-25T06:28:34.310Z,4124.00
2022-09-25T06:29:34.499Z,4224.00
2022-09-25T06:30:34.719Z,4316.00
2022-09-25T06:31:34.289Z,4380.00
2022-09-25T06:32:35.456Z,4484.00
2022-09-25T06:33:35.648Z,4412.00
2022-09-25T06:34:35.835Z,4308.00
2022-09-25T06:35:36.000Z,4272.00
2022-09-25T06:36:36.130Z,4216.00
2022-09-25T06:37:38.323Z,4292.00
2022-09-25T06:38:35.153Z,4308.00
2022-09-25T06:39:37.339Z,4316.00
2022-09-25T06:40:37.564Z,4420.00
2022-09-25T06:41:37.784Z,4440.00
2022-09-25T06:42:36.329Z,4416.00
2022-09-25T06:43:36.582Z,4588.00
2022-09-25T06:44:37.040Z,4708.00
2022-09-25T06:45:37.110Z,4792.00
2022-09-25T06:46:37.447Z,4736.00
2022-09-25T06:47:37.633Z,4868.00
2022-09-25T06:48:37.857Z,5296.00
2022-09-25T06:49:38.202Z,5172.00
2022-09-25T06:50:38.492Z,5656.00
2022-09-25T06:51:38.812Z,5964.00
2022-09-25T06:52:39.053Z,5696.00
2022-09-25T06:53:39.292Z,5948.00
2022-09-25T06:54:43.922Z,6016.00
2022-09-25T06:55:39.802Z,7284.00
2022-09-25T06:56:41.522Z,10284.00
2022-09-25T06:57:40.332Z,10960.00
2022-09-25T06:58:40.570Z,9508.00
2022-09-25T06:59:40.814Z,6232.00
2022-09-25T07:00:41.057Z,6340.00
2022-09-25T07:01:43.933Z,6888.00
2022-09-25T07:02:41.643Z,7428.00
2022-09-25T07:03:41.850Z,9072.00
2022-09-25T07:04:44.032Z,10320.00
2022-09-25T07:05:42.347Z,7484.00
2022-09-25T07:06:44.473Z,9328.00
2022-09-25T07:07:42.933Z,11780.00
2022-09-25T07:08:43.181Z,12072.00
2022-09-25T07:09:43.423Z,11624.00
2022-09-25T07:10:45.785Z,13420.00
2022-09-25T07:11:47.312Z,12360.00
2022-09-25T07:12:44.255Z,12596.00
2022-09-25T07:13:44.499Z,13552.00
2022-09-25T07:14:44.740Z,13072.00
2022-09-25T07:15:46.012Z,13264.00
2022-09-25T07:16:47.185Z,14752.00
2022-09-25T07:17:45.620Z,15008.00
2022-09-25T07:18:45.853Z,16100.00
2022-09-25T07:19:48.042Z,15292.00
2022-09-25T07:20:46.356Z,13984.00
2022-09-25T07:21:48.582Z,17184.00
2022-09-25T07:22:48.736Z,16800.00
2022-09-25T07:23:47.166Z,17696.00
2022-09-25T07:24:47.399Z,22720.00
2022-09-25T07:25:47.644Z,14872.00
2022-09-25T07:26:50.583Z,17696.00
2022-09-25T07:27:49.732Z,20288.00
2022-09-25T07:28:48.412Z,18208.00
2022-09-25T07:29:48.656Z,21440.00
2022-09-25T07:30:48.959Z,17280.00
2022-09-25T07:31:50.132Z,19712.00
2022-09-25T07:32:52.674Z,15172.00
2022-09-25T07:33:49.637Z,18784.00
2022-09-25T07:34:49.879Z,17024.00
2022-09-25T07:35:50.108Z,19008.00
2022-09-25T07:36:52.295Z,18240.00
2022-09-25T07:37:52.488Z,19456.00
2022-09-25T07:38:52.699Z,19264.00
2022-09-25T07:39:52.832Z,18368.00
2022-09-25T07:40:51.540Z,15084.00
2022-09-25T07:41:53.652Z,17664.00
2022-09-25T07:42:53.810Z,17440.00
2022-09-25T07:44:02.028Z,17472.00
2022-09-25T07:44:55.152Z,17472.00
2022-09-25T07:45:56.414Z,18240.00
2022-09-25T07:46:55.041Z,18656.00
2022-09-25T07:47:55.263Z,18752.00
2022-09-25T07:48:55.407Z,19104.00
2022-09-25T07:49:55.575Z,19296.00
2022-09-25T07:50:55.207Z,19296.00
2022-09-25T07:51:54.649Z,19328.00
2022-09-25T07:52:55.260Z,14616.00
2022-09-25T07:53:57.098Z,19168.00
2022-09-25T07:54:55.395Z,20064.00
2022-09-25T07:55:55.739Z,19808.00
2022-09-25T07:56:57.931Z,19680.00
2022-09-25T07:57:58.109Z,20512.00
2022-09-25T07:58:58.271Z,20832.00
2022-09-25T07:59:58.467Z,21088.00
2022-09-25T08:01:00.621Z,21824.00
2022-09-25T08:01:59.373Z,22432.00
2022-09-25T08:02:59.600Z,21600.00
2022-09-25T08:03:59.663Z,22112.00
2022-09-25T08:05:00.341Z,22528.00
2022-09-25T08:06:01.521Z,20128.00
2022-09-25T08:06:58.836Z,19008.00
2022-09-25T08:08:01.048Z,22624.00
2022-09-25T08:09:01.186Z,23744.00
2022-09-25T08:10:01.422Z,25024.00
2022-09-25T08:11:01.519Z,25152.00
2022-09-25T08:12:02.198Z,26464.00
2022-09-25T08:13:02.351Z,27232.00
2022-09-25T08:14:02.527Z,27200.00
2022-09-25T08:15:02.708Z,19936.00
2022-09-25T08:16:03.444Z,26272.00
2022-09-25T08:17:03.500Z,28352.00
2022-09-25T08:18:03.684Z,29056.00
2022-09-25T08:19:02.236Z,29824.00
2022-09-25T08:20:04.434Z,29984.00
2022-09-25T08:21:03.838Z,28352.00
2022-09-25T08:22:03.132Z,32064.00
2022-09-25T08:23:05.311Z,28800.00
2022-09-25T08:24:03.787Z,23680.00
2022-09-25T08:25:03.985Z,13456.00
2022-09-25T08:26:07.636Z,14460.00
2022-09-25T08:27:04.472Z,12936.00
2022-09-25T08:28:04.704Z,14244.00
2022-09-25T08:29:04.984Z,20768.00
2022-09-25T08:30:05.231Z,14116.00
2022-09-25T08:31:08.436Z,13324.00
2022-09-25T08:32:05.705Z,12532.00
2022-09-25T08:33:11.972Z,12500.00
2022-09-25T08:34:28.546Z,15784.00
2022-09-25T08:35:07.497Z,14508.00
2022-09-25T08:36:09.671Z,13640.00
2022-09-25T08:37:08.942Z,12900.00
2022-09-25T08:38:07.348Z,13276.00
2022-09-25T08:39:09.535Z,13868.00
2022-09-25T08:40:09.848Z,14772.00
2022-09-25T08:41:09.980Z,16508.00
2022-09-25T08:42:10.118Z,18368.00
2022-09-25T08:43:10.131Z,18784.00
2022-09-25T08:44:08.930Z,20896.00
2022-09-25T08:45:21.164Z,29344.00
2022-09-25T08:46:12.315Z,22656.00
2022-09-25T08:47:09.751Z,23488.00
2022-09-25T08:48:11.463Z,55584.00
2022-09-25T08:49:12.191Z,45472.00
2022-09-25T08:50:12.379Z,57792.00
2022-09-25T08:51:12.549Z,41760.00
2022-09-25T08:52:12.739Z,57536.00
2022-09-25T08:53:12.931Z,27296.00
2022-09-25T08:54:13.623Z,48576.00
2022-09-25T08:55:12.022Z,35456.00
2022-09-25T08:56:14.204Z,56064.00
2022-09-25T08:57:12.489Z,43264.00
2022-09-25T08:58:12.750Z,31936.00
2022-09-25T08:59:14.907Z,35328.00
2022-09-25T09:00:13.223Z,33408.00
2022-09-25T09:01:13.544Z,52896.00
2022-09-25T09:02:15.679Z,51456.00
2022-09-25T09:03:13.985Z,49056.00
2022-09-25T09:04:16.176Z,49664.00
2022-09-25T09:05:14.497Z,53216.00
2022-09-25T09:06:14.746Z,50912.00
2022-09-25T09:07:32.242Z,53184.00
2022-09-25T09:08:19.102Z,55584.00
2022-09-25T09:09:15.545Z,18464.00
2022-09-25T09:10:15.791Z,10880.00
2022-09-25T09:11:17.945Z,51520.00
2022-09-25T09:12:16.406Z,49248.00
2022-09-25T09:13:17.567Z,48704.00
2022-09-25T09:14:16.877Z,50304.00
2022-09-25T09:15:17.114Z,48608.00
2022-09-25T09:16:17.391Z,11800.00
2022-09-25T09:17:17.604Z,49824.00
2022-09-25T09:18:19.817Z,57344.00
2022-09-25T09:19:18.127Z,24352.00
2022-09-25T09:20:20.330Z,28224.00
2022-09-25T09:21:18.635Z,25856.00
2022-09-25T09:22:18.878Z,15720.00
2022-09-25T09:23:19.138Z,15000.00
2022-09-25T09:24:21.310Z,15428.00
2022-09-25T09:25:21.487Z,17880.00
2022-09-25T09:26:19.928Z,21376.00
2022-09-25T09:27:20.150Z,44224.00
2022-09-25T09:28:20.508Z,56864.00
2022-09-25T09:29:20.744Z,33024.00
2022-09-25T09:30:22.926Z,39904.00
2022-09-25T09:31:21.259Z,13604.00
2022-09-25T09:32:21.517Z,15424.00
2022-09-25T09:33:21.749Z,18272.00
2022-09-25T09:34:36.172Z,20576.00
2022-09-25T09:35:28.591Z,64128.00
2022-09-25T09:36:23.533Z,18752.00
2022-09-25T09:37:22.829Z,17544.00
2022-09-25T09:38:25.050Z,19328.00
2022-09-25T09:39:23.360Z,25504.00
2022-09-25T09:40:25.587Z,66112.00
2022-09-25T09:41:25.744Z,22784.00
2022-09-25T09:42:24.265Z,23040.00
2022-09-25T09:43:24.502Z,45184.00
2022-09-25T09:44:24.747Z,47424.00
2022-09-25T09:45:26.924Z,37888.00
2022-09-25T09:46:25.322Z,23616.00
2022-09-25T09:47:28.386Z,28224.00
2022-09-25T09:48:27.628Z,32864.00
2022-09-25T09:49:27.939Z,33696.00
2022-09-25T09:50:28.011Z,35648.00
2022-09-25T09:51:26.702Z,25504.00
2022-09-25T09:52:30.377Z,24160.00
2022-09-25T09:53:27.209Z,23968.00
2022-09-25T09:54:29.372Z,33856.00
2022-09-25T09:55:27.684Z,48480.00
2022-09-25T09:56:27.933Z,28576.00
2022-09-25T09:57:31.092Z,55264.00
2022-09-25T09:58:28.418Z,53280.00
2022-09-25T09:59:30.609Z,23264.00
2022-09-25T10:00:30.812Z,22784.00
2022-09-25T10:01:40.670Z,32352.00
2022-09-25T10:02:31.666Z,72928.00
2022-09-25T10:03:29.917Z,74048.00
2022-09-25T10:04:30.072Z,71296.00
2022-09-25T10:05:32.247Z,71136.00
2022-09-25T10:06:30.562Z,71136.00
2022-09-25T10:07:32.865Z,60064.00
2022-09-25T10:08:31.062Z,20512.00
2022-09-25T10:09:33.207Z,16188.00
2022-09-25T10:10:33.401Z,14960.00
2022-09-25T10:11:33.561Z,14816.00
2022-09-25T10:12:34.745Z,15116.00
2022-09-25T10:13:32.602Z,15000.00
2022-09-25T10:14:34.753Z,15044.00
2022-09-25T10:15:35.079Z,15700.00
2022-09-25T10:16:35.130Z,19392.00
2022-09-25T10:17:36.836Z,73984.00
2022-09-25T10:18:35.545Z,70752.00
2022-09-25T10:19:36.236Z,64288.00
2022-09-25T10:20:36.420Z,68160.00
2022-09-25T10:21:36.600Z,83744.00
2022-09-25T10:22:38.757Z,63392.00
2022-09-25T10:23:37.503Z,64736.00
2022-09-25T10:24:37.694Z,38080.00
2022-09-25T10:25:37.921Z,15348.00
2022-09-25T10:26:38.119Z,15020.00
2022-09-25T10:27:39.626Z,15572.00
2022-09-25T10:28:39.016Z,15616.00
2022-09-25T10:29:39.204Z,16328.00
2022-09-25T10:30:39.437Z,17460.00
2022-09-25T10:31:39.599Z,18848.00
2022-09-25T10:32:40.498Z,20832.00
2022-09-25T10:33:38.572Z,24928.00
2022-09-25T10:34:40.750Z,34272.00
2022-09-25T10:35:39.074Z,81216.00
2022-09-25T10:36:39.307Z,83488.00
2022-09-25T10:37:42.993Z,60128.00
2022-09-25T10:38:39.824Z,67808.00
2022-09-25T10:39:45.209Z,59552.00
2022-09-25T10:40:40.407Z,46688.00
2022-09-25T10:41:42.570Z,36032.00
2022-09-25T10:42:43.726Z,28416.00
2022-09-25T10:43:42.959Z,32416.00
2022-09-25T10:44:43.149Z,33568.00
2022-09-25T10:45:43.863Z,30816.00
2022-09-25T10:46:44.042Z,31136.00
2022-09-25T10:47:45.251Z,29312.00
2022-09-25T10:48:44.675Z,42816.00
2022-09-25T10:49:44.679Z,52800.00
2022-09-25T10:50:45.368Z,38944.00
2022-09-25T10:51:45.534Z,65632.00
2022-09-25T10:52:46.714Z,80832.00
2022-09-25T10:53:45.963Z,65760.00
2022-09-25T10:54:45.927Z,70592.00
2022-09-25T10:55:46.727Z,66080.00
2022-09-25T10:56:46.902Z,58720.00
2022-09-25T10:57:48.046Z,50816.00
2022-09-25T10:58:47.254Z,69760.00
2022-09-25T10:59:45.941Z,59232.00
2022-09-25T11:00:48.118Z,46592.00
2022-09-25T11:01:48.359Z,52192.00
2022-09-25T11:02:47.567Z,37600.00
2022-09-25T11:03:48.944Z,36416.00
2022-09-25T11:04:47.246Z,34272.00
2022-09-25T11:05:49.423Z,36256.00
2022-09-25T11:06:49.611Z,37792.00
2022-09-25T11:07:49.069Z,41632.00
2022-09-25T11:08:50.263Z,41824.00
2022-09-25T11:09:50.448Z,41536.00
2022-09-25T11:10:48.883Z,79104.00
2022-09-25T11:11:51.067Z,66528.00
2022-09-25T11:12:52.196Z,91392.00
2022-09-25T11:13:49.648Z,77600.00
2022-09-25T11:14:50.842Z,56800.00
2022-09-25T11:15:52.035Z,72352.00
2022-09-25T11:16:50.563Z,80192.00
2022-09-25T11:17:51.787Z,76960.00
2022-09-25T11:18:51.079Z,73696.00
2022-09-25T11:19:54.724Z,70432.00
2022-09-25T11:20:51.544Z,67936.00
2022-09-25T11:21:51.795Z,65472.00
2022-09-25T11:22:53.024Z,64192.00
2022-09-25T11:23:54.302Z,65440.00
2022-09-25T11:24:55.901Z,66016.00
2022-09-25T11:25:55.799Z,65440.00
2022-09-25T11:26:53.121Z,64160.00
2022-09-25T11:27:56.302Z,62592.00
2022-09-25T11:28:53.616Z,60800.00
2022-09-25T11:29:53.871Z,62240.00
2022-09-25T11:30:56.117Z,63136.00
2022-09-25T11:31:54.395Z,63584.00
2022-09-25T11:32:55.649Z,64384.00
2022-09-25T11:33:54.945Z,63040.00
2022-09-25T11:34:55.190Z,63232.00
2022-09-25T11:35:57.369Z,61984.00
2022-09-25T11:36:55.677Z,63552.00
2022-09-25T11:37:56.966Z,61152.00
2022-09-25T11:38:56.266Z,62688.00
2022-09-25T11:39:58.456Z,63328.00
2022-09-25T11:40:56.784Z,63744.00
2022-09-25T11:41:57.005Z,64000.00
2022-09-25T11:42:59.306Z,66336.00
2022-09-25T11:43:58.561Z,66592.00
2022-09-25T11:44:59.729Z,66496.00
2022-09-25T11:45:58.072Z,67136.00
2022-09-25T11:46:58.286Z,67168.00
2022-09-25T11:48:01.449Z,66912.00
2022-09-25T11:48:58.785Z,66592.00
2022-09-25T11:49:59.035Z,67840.00
2022-09-25T11:51:01.216Z,65632.00
2022-09-25T11:51:59.542Z,63808.00
2022-09-25T11:53:03.251Z,62144.00
2022-09-25T11:54:17.968Z,58848.00
2022-09-25T11:55:01.309Z,57824.00
2022-09-25T11:56:02.505Z,58752.00
2022-09-25T11:57:00.945Z,60800.00
2022-09-25T11:58:04.120Z,62784.00
2022-09-25T11:59:01.441Z,64288.00
2022-09-25T12:00:01.717Z,67072.00
2022-09-25T12:01:03.917Z,67008.00
2022-09-25T12:02:02.195Z,67264.00
2022-09-25T12:03:03.413Z,67296.00
2022-09-25T12:04:02.723Z,67648.00
2022-09-25T12:05:02.965Z,66304.00
2022-09-25T12:06:05.153Z,65216.00
2022-09-25T12:07:03.453Z,61376.00
2022-09-25T12:08:04.674Z,60544.00
2022-09-25T12:09:05.904Z,60096.00
2022-09-25T12:10:04.228Z,59488.00
2022-09-25T12:11:06.393Z,59680.00
2022-09-25T12:12:04.710Z,60288.00
2022-09-25T12:13:08.376Z,59904.00
2022-09-25T12:14:05.212Z,59328.00
2022-09-25T12:15:07.399Z,58528.00
2022-09-25T12:16:07.634Z,58624.00
2022-09-25T12:17:05.965Z,57248.00
2022-09-25T12:18:09.625Z,55168.00
2022-09-25T12:19:06.456Z,54848.00
2022-09-25T12:20:08.647Z,53472.00
2022-09-25T12:21:08.836Z,55424.00
2022-09-25T12:22:09.015Z,55008.00
2022-09-25T12:23:08.566Z,54240.00
2022-09-25T12:24:07.903Z,53888.00
2022-09-25T12:25:08.103Z,54752.00
2022-09-25T12:26:10.285Z,55488.00
2022-09-25T12:27:10.471Z,57376.00